My Meet Scores
Hailey Love, Flipstar Gymnastics Academy - MyMeetScores.com
Top100 | Top Teams | Upcoming Meets | Completed Meets | Latest | Add Scores | Help| Support | Bookmark and Share

Hailey Love, Flipstar Gymnastics Academy
Personal Bests
LevelVault BarsBeamFloorAA
39.6009.100 9.6009.37537.200
49.6259.700 9.8259.65038.625
69.1259.325 9.5509.60037.225
Scores on America's Top 100as of 10.16.2019
Year Level Vault Bars Beam Floor AA
2018 49.82538.625

Click here to view our
exclusive Top 100 Collection
Meet Scores
Date Meet Team Session Level Division Vault Bars Beam Floor AA
2019-03-15 Illinois State Championship Level 6,9,10 Flipstar Gymnastics Academy 12 6 Jr F 8.750 19T 8.550 17 8.975 18 9.600 4T 35.875 18
2019-03-01 2019 MEGA Spring Invite Flipstar Gymnastics Academy All 6 All Ages 9.050 13T 9.325 11 9.400 15T 9.450 6T 37.225 7
2019-02-23 Kinetic Classic 2019 Flipstar Gymnastics Academy 1 6 Younger 9.125 102T 8.900 313T 9.550 19T 9.450 38T 37.025 46T
2019-02-08 Midwest Twisters Harley Meet Womens Flipstar Gymnastics Academy O09 6 11 yrs. 8.800 3T 8.850 5 9.450 1 9.400 3T 36.500 3
2019-01-11 Circle of Stars Gymnastics Flipstar Gymnastics Academy B09 6 Junior B 9.075 4T 9.100 18* 9.075 27T 9.225 13* 36.475 8T
2018-12-07 Horton Invite Flipstar Gymnastics Academy All 6 Ch 8.600 9 9.025 9 9.050 5 9.500 2 36.175 6
2018-03-08 Level 4 & 5 State Flipstar Gymnastics Academy All 4 Jr B 9.450 1 9.475 2T 9.650 5T 9.600 1 38.175 1
2018-02-23 Kinetic Classic Flipstar Gymnastics Academy 7 4 Middle 9.150 2 9.225 13T 9.350 17 9.575 1 37.300 4
2018-02-16 Big Classic Flipstar Gymnastics Academy 7B 4 Child C 9.625 1 9.700 1 9.650 1 9.650 1 38.625 1
2018-02-09 IGI Chicago Style Gymnastics Meet Flipstar Gymnastics Academy 2 4 211 Lake Shore Dr L4 C 9.200 1 9.000 10 9.825 1 9.375 4 37.400 1
2018-01-19 Sand Dollar/ Whitlow Invitational Flipstar Gymnastics Academy E06 4 Jr B 9.550 1 8.725 7 9.650 1 9.000 6 36.925 5
2017-12-08 Horton Invite At IWU Shirk Center Flipstar Gymnastics Academy All 4 Jr A 9.475 3 9.000 8 9.750 1 9.650 1 37.875 2
2017-11-17 SCGA Classic Flipstar Gymnastics Academy 2 4 JrB 9.400 2 9.100 3 9.175 3 9.450 1 37.125 1
2017-11-10 Illinois NAWGJ Judges Cup 2017 Flipstar Gymnastics Academy G3 4 All Ages 9.200 5 9.250 11T 9.350 3T 9.325 1 37.125 2
2017-02-24 Kinetic Classic Flipstar Gymnastics Academy 5,6 4 All Ages 9.225 13* 8.825 65T 9.250 35T 9.175 33* 36.475 26T
2017-02-17 Big Classic Flipstar Gymnastics Academy B 4 Child B 9.300 1T 9.050 19 9.325 7T 9.200 6T 36.875 5
2017-02-10 IGI Chicago Style Gymnastics Meet Flipstar Gymnastics Academy 633L 4 JrB 9.150 5 8.300 19 9.375 6 9.200 11 36.025 11
2016-12-09 Horton Invitational Flipstar Gymnastics Academy 2 4 JrB 8.725 7 8.100 14 9.450 2 8.850 7 35.125 8
2016-11-11 2016 Illinois Judges Cup Flipstar Gymnastics Academy R4 4 9 Year Old 8.750 4 7.300 11 9.150 5 9.100 3 34.300 6
2016-03-04 2016 Illinois Level 3 State Championships Flipstar Gymnastics Academy 3 Youth-B 9.600 6 9.100 9 9.200 1 9.300 5 37.200 4
2016-01-22 King Arthur Invitational Flipstar Gymnastics Academy S13 3 Jr.B 9.150 10 9.050 6 9.600 1 9.375 1 37.175 1
Get your scores on
a t-shirt, pin, or hoodie

www.lazysuits.com